Time;durP1;ratioP1;P1;durP2;ratioP2;P2;SDS_P1;SDS_P2;PMS_P1;PMS_P2;Temp;Humidity;BMP_temperature;BMP_pressure;BME280_temperature;BME280_humidity;BME280_pressure;Samples;Min_cycle;Max_cycle;Signal;HPM_P1;HPM_P2
2023/10/11 00:02:14;;;;;;;7.03;4.00;;;19.30;99.90;;;;;;5077543;28;20486;-80
2023/10/11 00:04:41;;;;;;;7.90;4.03;;;19.20;99.90;;;;;;5075855;28;21006;-79
2023/10/11 00:07:09;;;;;;;9.10;4.00;;;19.20;99.90;;;;;;5077228;28;20977;-80
2023/10/11 00:09:38;;;;;;;7.83;3.83;;;19.10;99.90;;;;;;5085261;28;20541;-80
2023/10/11 00:12:05;;;;;;;7.17;3.70;;;19.20;99.90;;;;;;5084010;28;21180;-80
2023/10/11 00:14:31;;;;;;;8.90;4.10;;;19.20;99.90;;;;;;5079893;28;20446;-80
2023/10/11 00:16:58;;;;;;;6.90;4.07;;;19.20;99.90;;;;;;5079754;28;20485;-78
2023/10/11 00:19:29;;;;;;;8.40;4.60;;;19.00;99.90;;;;;;5078088;28;20201;-79
2023/10/11 00:21:56;;;;;;;6.63;3.93;;;19.00;99.90;;;;;;5094993;28;20466;-80
2023/10/11 00:24:23;;;;;;;6.27;3.53;;;19.00;99.90;;;;;;5093470;28;20478;-79
2023/10/11 00:26:52;;;;;;;6.40;3.20;;;19.00;99.90;;;;;;5079585;28;20463;-80
2023/10/11 00:29:18;;;;;;;6.83;3.63;;;18.90;99.90;;;;;;5097588;28;20454;-80
2023/10/11 00:31:46;;;;;;;5.83;3.90;;;18.90;99.90;;;;;;5100434;28;20474;-79
2023/10/11 00:34:13;;;;;;;12.30;4.10;;;18.90;99.90;;;;;;5097612;28;20450;-80
2023/10/11 00:36:45;;;;;;;8.17;3.80;;;18.90;99.90;;;;;;5093215;28;20451;-79
2023/10/11 00:39:16;;;;;;;7.07;4.07;;;19.00;99.90;;;;;;5085570;28;20459;-79
2023/10/11 00:41:46;;;;;;;7.50;4.10;;;18.90;99.90;;;;;;5078542;28;20471;-78
2023/10/11 00:44:16;;;;;;;7.23;4.00;;;18.90;99.90;;;;;;5080660;28;20513;-78
2023/10/11 00:46:56;;;;;;;7.80;4.37;;;18.90;99.90;;;;;;5080421;28;20876;-78
2023/10/11 00:49:23;;;;;;;8.37;3.90;;;18.90;99.90;;;;;;5078233;28;20459;-79
2023/10/11 00:51:52;;;;;;;9.07;4.17;;;18.90;99.90;;;;;;5082212;28;20463;-80
2023/10/11 00:54:21;;;;;;;8.37;4.37;;;18.90;99.90;;;;;;5079336;28;20955;-79
2023/10/11 00:56:49;;;;;;;8.70;4.90;;;18.90;99.90;;;;;;5082035;28;20458;-80
2023/10/11 00:59:16;;;;;;;6.70;3.67;;;18.90;99.90;;;;;;5085992;28;20466;-79
2023/10/11 01:01:43;;;;;;;7.73;3.80;;;18.90;99.90;;;;;;5093983;28;20484;-79
2023/10/11 01:04:10;;;;;;;7.40;4.20;;;18.80;99.90;;;;;;5098669;28;20858;-79
2023/10/11 01:06:37;;;;;;;8.90;4.00;;;18.80;99.90;;;;;;5100127;28;20462;-79
2023/10/11 01:09:15;;;;;;;7.47;5.50;;;18.80;99.90;;;;;;5099164;28;20456;-80
2023/10/11 01:11:42;;;;;;;6.00;3.60;;;18.70;99.90;;;;;;5084188;28;20486;-81
2023/10/11 01:14:11;;;;;;;7.57;3.80;;;18.70;99.90;;;;;;5077845;28;20530;-78
2023/10/11 01:16:37;;;;;;;8.33;3.63;;;18.70;99.90;;;;;;5075860;28;20458;-79
2023/10/11 01:19:10;;;;;;;5.67;3.67;;;18.70;99.90;;;;;;5082415;28;20462;-78
2023/10/11 01:21:39;;;;;;;8.37;4.10;;;18.70;99.90;;;;;;5090476;28;20470;-79
2023/10/11 01:24:08;;;;;;;6.50;3.77;;;18.70;99.90;;;;;;5096226;28;20452;-78
2023/10/11 01:26:35;;;;;;;8.77;3.53;;;18.70;99.90;;;;;;5098328;28;20456;-80
2023/10/11 01:29:02;;;;;;;8.20;4.30;;;18.60;99.90;;;;;;5094271;28;20462;-78
2023/10/11 01:31:32;;;;;;;7.97;4.60;;;18.60;99.90;;;;;;5084557;28;20554;-79
2023/10/11 01:34:00;;;;;;;5.63;3.70;;;18.60;99.90;;;;;;5075910;28;20447;-78
2023/10/11 01:36:26;;;;;;;8.40;4.50;;;18.60;99.90;;;;;;5076698;28;20801;-78
2023/10/11 01:39:00;;;;;;;7.43;4.43;;;18.60;99.90;;;;;;5083087;28;20458;-78
2023/10/11 01:41:27;;;;;;;10.53;4.70;;;18.60;99.90;;;;;;5077493;28;20505;-79
2023/10/11 01:43:55;;;;;;;8.50;4.23;;;18.60;99.90;;;;;;5075884;28;20453;-78
2023/10/11 01:46:26;;;;;;;9.30;4.13;;;18.50;99.90;;;;;;5077591;28;20450;-77
2023/10/11 01:48:54;;;;;;;11.30;4.53;;;18.50;99.90;;;;;;5077271;28;20470;-80
2023/10/11 01:51:26;;;;;;;7.97;4.10;;;18.50;99.90;;;;;;5087117;28;20909;-77
2023/10/11 01:53:54;;;;;;;7.33;4.00;;;18.60;99.90;;;;;;5098016;28;20446;-79
2023/10/11 01:56:23;;;;;;;8.50;4.33;;;18.50;99.90;;;;;;5092801;28;20531;-80
2023/10/11 01:58:50;;;;;;;8.67;4.43;;;18.60;99.90;;;;;;5078034;28;20447;-79
2023/10/11 02:01:21;;;;;;;10.50;4.53;;;18.50;99.90;;;;;;5090931;28;20931;-80
2023/10/11 02:03:51;;;;;;;10.23;4.60;;;18.50;99.90;;;;;;5079186;28;20451;-81
2023/10/11 02:06:19;;;;;;;9.87;3.87;;;18.50;99.90;;;;;;5076157;28;20491;-81
2023/10/11 02:08:46;;;;;;;7.27;4.70;;;18.50;99.90;;;;;;5084398;28;20461;-78
2023/10/11 02:11:14;;;;;;;7.13;3.90;;;18.50;99.90;;;;;;5088030;28;20481;-80
2023/10/11 02:13:42;;;;;;;6.00;3.67;;;18.40;99.90;;;;;;5096597;28;20450;-79
2023/10/11 02:16:10;;;;;;;9.37;3.97;;;18.50;99.90;;;;;;5097916;28;20446;-79
2023/10/11 02:18:36;;;;;;;7.80;4.40;;;18.50;99.90;;;;;;5089245;28;20466;-80
2023/10/11 02:21:06;;;;;;;10.83;5.00;;;18.50;99.90;;;;;;5078658;28;20481;-80
2023/10/11 02:23:37;;;;;;;7.83;4.07;;;18.50;99.90;;;;;;5095181;28;20462;-79
2023/10/11 02:26:04;;;;;;;8.03;4.40;;;18.50;99.90;;;;;;5095880;28;20502;-79
2023/10/11 02:28:32;;;;;;;6.60;4.40;;;18.50;99.90;;;;;;5085782;28;20458;-79
2023/10/11 02:30:59;;;;;;;7.47;4.40;;;18.50;99.90;;;;;;5075668;28;20471;-80
2023/10/11 02:33:30;;;;;;;10.23;4.73;;;18.50;99.90;;;;;;5077175;28;20534;-78
2023/10/11 02:35:57;;;;;;;6.50;3.47;;;18.50;99.90;;;;;;5082241;28;20463;-79
2023/10/11 02:38:25;;;;;;;15.00;4.80;;;18.50;99.90;;;;;;5077914;28;20466;-79
2023/10/11 02:40:56;;;;;;;9.30;4.87;;;18.50;99.90;;;;;;5074271;28;20475;-79
2023/10/11 02:43:25;;;;;;;7.43;4.60;;;18.40;99.90;;;;;;5074219;28;20537;-78
2023/10/11 02:45:53;;;;;;;6.80;4.03;;;18.40;99.90;;;;;;5073219;28;20486;-78
2023/10/11 02:48:20;;;;;;;8.20;4.73;;;18.30;99.90;;;;;;5073229;28;20458;-78
2023/10/11 02:50:48;;;;;;;8.10;4.27;;;18.30;99.90;;;;;;5074457;28;20539;-77
2023/10/11 02:53:24;;;;;;;12.80;5.13;;;18.20;99.90;;;;;;5074101;28;20533;-78
2023/10/11 02:56:05;;;;;;;6.23;4.43;;;18.20;99.90;;;;;;5076982;28;20443;-78
2023/10/11 02:58:32;;;;;;;7.33;4.37;;;18.30;99.90;;;;;;5073878;28;20447;-78
2023/10/11 03:01:02;;;;;;;11.40;4.40;;;18.30;99.90;;;;;;5075129;28;20479;-79
2023/10/11 03:03:29;;;;;;;8.83;4.03;;;18.20;99.90;;;;;;5081192;28;20459;-79
2023/10/11 03:05:59;;;;;;;7.77;5.80;;;18.20;99.90;;;;;;5073396;28;20489;-77
2023/10/11 03:08:27;;;;;;;10.17;5.13;;;18.00;99.90;;;;;;5073489;28;20560;-78
2023/10/11 03:10:56;;;;;;;7.30;4.40;;;18.00;99.90;;;;;;5072914;28;21001;-79
2023/10/11 03:13:29;;;;;;;8.27;4.47;;;18.00;99.90;;;;;;5074044;28;20865;-79
2023/10/11 03:15:57;;;;;;;8.93;4.90;;;17.90;99.90;;;;;;5073507;28;20480;-78
2023/10/11 03:18:27;;;;;;;8.13;5.10;;;17.90;99.90;;;;;;5072469;28;20526;-78
2023/10/11 03:21:07;;;;;;;10.43;4.90;;;18.00;99.90;;;;;;5072874;28;20467;-79
2023/10/11 03:23:37;;;;;;;7.50;4.13;;;17.90;99.90;;;;;;5074259;28;20544;-79
2023/10/11 03:26:17;;;;;;;8.67;4.30;;;17.80;99.90;;;;;;5073095;28;20489;-77
2023/10/11 03:28:45;;;;;;;8.90;4.90;;;17.90;99.90;;;;;;5072829;28;20462;-81
2023/10/11 03:31:13;;;;;;;7.93;4.50;;;17.80;99.90;;;;;;5075149;28;20812;-80
2023/10/11 03:33:42;;;;;;;13.10;4.47;;;17.80;99.90;;;;;;5072451;28;20982;-81
2023/10/11 03:36:18;;;;;;;10.57;4.60;;;17.80;99.90;;;;;;5072477;28;20896;-83
2023/10/11 03:38:51;;;;;;;8.57;4.83;;;17.80;99.90;;;;;;5071741;28;20485;-83
2023/10/11 03:41:25;;;;;;;9.47;4.63;;;17.90;99.90;;;;;;5072446;28;20570;-81
2023/10/11 03:43:54;;;;;;;8.23;4.47;;;17.90;99.90;;;;;;5074652;28;21128;-81
2023/10/11 03:46:25;;;;;;;11.30;4.97;;;17.80;99.90;;;;;;5075930;28;20512;-80
2023/10/11 03:48:56;;;;;;;8.37;5.00;;;17.80;99.90;;;;;;5075499;28;20531;-81
2023/10/11 03:51:23;;;;;;;7.83;4.47;;;17.70;99.90;;;;;;5083612;28;20892;-81
2023/10/11 03:53:52;;;;;;;9.90;4.70;;;17.60;99.90;;;;;;5089621;28;20928;-82
2023/10/11 03:56:18;;;;;;;7.50;4.37;;;17.60;99.90;;;;;;5077061;28;20481;-80
2023/10/11 03:58:45;;;;;;;11.30;4.53;;;17.60;99.90;;;;;;5076079;28;20511;-79
2023/10/11 04:01:14;;;;;;;9.37;4.80;;;17.70;99.90;;;;;;5091823;28;20598;-82
2023/10/11 04:03:41;;;;;;;9.23;4.53;;;17.70;99.90;;;;;;5081324;28;20453;-82
2023/10/11 04:06:16;;;;;;;7.90;4.40;;;17.70;99.90;;;;;;5079156;28;20499;-82
2023/10/11 04:08:48;;;;;;;8.87;4.87;;;17.70;99.90;;;;;;5090703;28;20483;-82
2023/10/11 04:11:18;;;;;;;12.30;5.57;;;17.60;99.90;;;;;;5084705;28;20462;-81
2023/10/11 04:13:49;;;;;;;9.13;4.50;;;17.60;99.90;;;;;;5077943;28;20494;-81
2023/10/11 04:16:17;;;;;;;10.30;5.07;;;17.50;99.90;;;;;;5076809;28;20449;-81
2023/10/11 04:18:44;;;;;;;6.90;4.20;;;17.50;99.90;;;;;;5081905;28;20490;-82
2023/10/11 04:21:36;;;;;;;9.20;4.70;;;17.50;99.90;;;;;;5081955;28;20481;-81
2023/10/11 04:24:06;;;;;;;9.07;4.37;;;17.50;99.90;;;;;;5097271;28;20445;-79
2023/10/11 04:26:37;;;;;;;10.27;4.57;;;17.40;99.90;;;;;;5088893;28;20481;-81
2023/10/11 04:29:06;;;;;;;8.10;4.30;;;17.40;99.90;;;;;;5087230;28;20460;-81
2023/10/11 04:31:53;;;;;;;9.20;4.60;;;17.50;99.90;;;;;;5091898;28;20977;-81
2023/10/11 04:34:23;;;;;;;8.77;4.50;;;17.50;99.90;;;;;;5099010;28;20455;-81
2023/10/11 04:36:55;;;;;;;8.53;3.93;;;17.50;99.90;;;;;;5094028;28;20950;-80
2023/10/11 04:39:28;;;;;;;6.80;4.87;;;17.60;99.90;;;;;;5079857;28;20477;-80
2023/10/11 04:41:57;;;;;;;8.13;4.30;;;17.60;99.90;;;;;;5085616;28;20470;-80
2023/10/11 04:44:30;;;;;;;8.77;4.67;;;17.60;99.90;;;;;;5089474;28;20792;-80
2023/10/11 04:47:00;;;;;;;10.40;4.40;;;17.60;99.90;;;;;;5099689;28;20481;-79
2023/10/11 04:49:30;;;;;;;11.47;4.80;;;17.60;99.90;;;;;;5090796;28;20544;-78
2023/10/11 04:51:59;;;;;;;6.70;4.23;;;17.50;99.90;;;;;;5084757;28;20484;-79
2023/10/11 04:54:36;;;;;;;10.80;4.07;;;17.50;99.90;;;;;;5084346;28;20523;-80
2023/10/11 04:57:17;;;;;;;8.30;4.57;;;17.60;99.90;;;;;;5099934;28;20481;-80
2023/10/11 04:59:46;;;;;;;7.00;4.33;;;17.50;99.90;;;;;;5092696;28;20463;-78
2023/10/11 05:02:24;;;;;;;7.43;4.23;;;17.50;99.90;;;;;;5090971;28;20477;-82
2023/10/11 05:04:51;;;;;;;8.20;3.93;;;17.50;99.90;;;;;;5101572;28;20560;-80
2023/10/11 05:07:21;;;;;;;7.20;4.43;;;17.60;99.90;;;;;;5098763;28;20865;-78
2023/10/11 05:09:56;;;;;;;9.53;4.47;;;17.70;99.90;;;;;;5084666;28;20461;-81
2023/10/11 05:12:24;;;;;;;8.10;4.20;;;17.70;99.90;;;;;;5078380;28;20470;-80
2023/10/11 05:15:03;;;;;;;6.57;3.90;;;17.70;99.90;;;;;;5080310;28;20450;-81
2023/10/11 05:17:49;;;;;;;7.60;4.30;;;17.60;99.90;;;;;;5076977;28;20515;-81
2023/10/11 05:20:36;;;;;;;6.67;4.10;;;17.70;99.90;;;;;;5077473;28;20466;-79
2023/10/11 05:23:06;;;;;;;6.17;4.27;;;17.60;99.90;;;;;;5078304;28;20455;-79
2023/10/11 05:25:45;;;;;;;9.10;3.90;;;17.70;99.90;;;;;;5082915;28;20515;-78
2023/10/11 05:28:44;;;;;;;8.53;4.70;;;17.70;99.90;;;;;;5078598;28;20496;-78
2023/10/11 05:31:22;;;;;;;9.73;4.57;;;17.70;99.90;;;;;;5078699;28;21009;-80
2023/10/11 05:36:51;;;;;;;8.57;4.30;;;17.60;99.90;;;;;;5077683;28;20892;-81
2023/10/11 05:53:01;;;;;;;6.60;3.73;;;17.70;99.90;;;;;;5078473;28;20525;-80
2023/10/11 05:55:29;;;;;;;11.07;4.67;;;17.60;99.90;;;;;;5078101;28;20454;-80
2023/10/11 05:57:57;;;;;;;8.63;3.53;;;17.70;99.90;;;;;;5078184;28;20815;-79
2023/10/11 06:00:25;;;;;;;6.33;4.10;;;17.70;99.90;;;;;;5077353;28;20468;-80
2023/10/11 06:02:52;;;;;;;12.57;4.77;;;17.70;99.90;;;;;;5077660;28;20505;-80
2023/10/11 06:05:22;;;;;;;6.00;3.80;;;17.60;99.90;;;;;;5080200;28;20439;-80
2023/10/11 06:08:00;;;;;;;7.90;3.80;;;17.70;99.90;;;;;;5083944;28;20968;-80
2023/10/11 06:10:35;;;;;;;6.37;3.93;;;17.70;99.90;;;;;;5085003;28;20453;-80
2023/10/11 06:13:07;;;;;;;11.77;4.43;;;17.80;99.90;;;;;;5092174;28;20452;-80
2023/10/11 06:15:34;;;;;;;9.03;3.80;;;17.80;99.90;;;;;;5086870;28;20446;-79
2023/10/11 06:18:01;;;;;;;6.90;3.97;;;17.90;99.90;;;;;;5085956;28;20827;-80
2023/10/11 06:20:28;;;;;;;6.30;3.30;;;17.80;99.90;;;;;;5079617;28;20515;-81
2023/10/11 06:22:55;;;;;;;5.90;3.43;;;17.80;99.90;;;;;;5078963;28;20453;-79
2023/10/11 06:25:49;;;;;;;5.50;3.70;;;17.90;99.90;;;;;;5090518;28;20463;-80
2023/10/11 06:28:13;;;;;;;7.00;3.50;;;17.90;99.90;;;;;;5090728;28;20541;-81
2023/10/11 06:30:42;;;;;;;7.23;3.87;;;18.00;99.90;;;;;;5087202;28;20483;-79
2023/10/11 06:33:12;;;;;;;8.53;4.73;;;17.90;99.90;;;;;;5077285;28;20455;-80
2023/10/11 06:35:44;;;;;;;10.03;4.70;;;18.00;99.90;;;;;;5078244;28;20806;-79
2023/10/11 06:38:12;;;;;;;7.90;3.63;;;18.10;99.90;;;;;;5082492;28;20442;-80
2023/10/11 06:40:47;;;;;;;7.93;3.77;;;18.10;99.90;;;;;;5077218;28;20979;-79
2023/10/11 06:43:15;;;;;;;7.93;3.60;;;18.10;99.90;;;;;;5079650;28;20511;-80
2023/10/11 06:45:42;;;;;;;8.13;3.37;;;18.00;99.90;;;;;;5078502;28;20491;-77
2023/10/11 06:48:13;;;;;;;6.07;3.20;;;18.00;99.90;;;;;;5075583;28;21031;-79
2023/10/11 06:50:40;;;;;;;7.27;3.80;;;18.00;99.90;;;;;;5083643;28;20462;-80
2023/10/11 06:53:09;;;;;;;7.50;3.90;;;18.10;99.90;;;;;;5084533;28;20486;-80
2023/10/11 06:55:39;;;;;;;9.67;4.00;;;18.10;99.90;;;;;;5091041;28;20482;-79
2023/10/11 06:58:09;;;;;;;7.27;3.53;;;18.20;99.90;;;;;;5079936;28;20453;-79
2023/10/11 07:00:38;;;;;;;7.37;4.50;;;18.20;99.90;;;;;;5078043;28;20468;-79
2023/10/11 07:03:09;;;;;;;10.33;4.80;;;18.30;99.90;;;;;;5081981;28;20453;-79
2023/10/11 07:05:40;;;;;;;9.73;4.20;;;18.20;99.90;;;;;;5085178;28;20562;-80
2023/10/11 07:08:08;;;;;;;5.90;3.47;;;18.30;99.90;;;;;;5081884;28;20443;-79
2023/10/11 07:10:35;;;;;;;6.33;3.77;;;18.30;99.90;;;;;;5079714;28;20471;-79
2023/10/11 07:13:07;;;;;;;10.00;4.10;;;18.30;99.90;;;;;;5082389;28;20547;-79
2023/10/11 07:15:41;;;;;;;7.23;3.63;;;18.20;99.90;;;;;;5079329;28;20477;-79
2023/10/11 07:18:10;;;;;;;6.97;4.00;;;18.20;99.90;;;;;;5086360;28;20438;-78
2023/10/11 07:20:58;;;;;;;8.60;4.60;;;18.30;99.90;;;;;;5082882;28;20589;-79
2023/10/11 07:23:35;;;;;;;9.13;4.07;;;18.50;99.90;;;;;;5087153;28;20518;-81
2023/10/11 07:26:22;;;;;;;10.10;3.73;;;18.50;99.90;;;;;;5090382;28;20511;-81
2023/10/11 07:28:50;;;;;;;7.83;3.70;;;18.60;99.90;;;;;;5088576;28;20446;-79
2023/10/11 07:31:19;;;;;;;9.40;3.90;;;18.60;99.90;;;;;;5100560;28;20522;-81
2023/10/11 07:33:49;;;;;;;9.77;3.87;;;18.60;99.90;;;;;;5095443;28;20536;-81
2023/10/11 07:36:18;;;;;;;6.47;3.97;;;18.60;99.90;;;;;;5079435;28;20490;-79
2023/10/11 07:38:54;;;;;;;7.97;3.10;;;18.70;99.90;;;;;;5079887;28;20467;-80
2023/10/11 07:41:22;;;;;;;8.03;3.87;;;18.70;99.90;;;;;;5080348;28;20485;-80
2023/10/11 07:43:49;;;;;;;7.53;3.87;;;18.70;99.90;;;;;;5079645;28;20478;-79
2023/10/11 07:46:17;;;;;;;5.90;3.53;;;18.70;99.90;;;;;;5092375;28;20489;-80
2023/10/11 07:48:45;;;;;;;8.27;3.30;;;18.80;99.90;;;;;;5100036;28;20460;-81
2023/10/11 07:51:12;;;;;;;9.80;4.50;;;18.90;99.90;;;;;;5099790;28;20470;-81
2023/10/11 07:53:41;;;;;;;6.47;3.80;;;19.00;99.90;;;;;;5100293;28;20449;-81
2023/10/11 07:56:08;;;;;;;7.70;4.40;;;19.00;99.90;;;;;;5081965;28;20443;-81
2023/10/11 07:58:35;;;;;;;8.20;3.27;;;19.10;99.90;;;;;;5080772;28;20462;-80
2023/10/11 08:01:15;;;;;;;6.53;4.00;;;19.10;99.90;;;;;;5080022;28;20570;-79
2023/10/11 08:03:44;;;;;;;9.07;3.87;;;19.20;99.90;;;;;;5082532;28;20874;-81
2023/10/11 08:06:14;;;;;;;9.17;3.73;;;19.20;99.90;;;;;;5090963;28;20490;-81
2023/10/11 08:08:43;;;;;;;12.07;4.27;;;19.30;99.90;;;;;;5100779;28;20858;-80
2023/10/11 08:11:18;;;;;;;5.37;3.70;;;19.30;99.90;;;;;;5100989;28;20482;-80
2023/10/11 08:13:47;;;;;;;5.37;3.10;;;19.30;99.90;;;;;;5087010;28;20458;-81
2023/10/11 08:16:17;;;;;;;8.60;3.90;;;19.40;99.90;;;;;;5090362;28;20454;-78
2023/10/11 08:18:45;;;;;;;7.87;4.27;;;19.40;99.90;;;;;;5082147;28;20482;-80
2023/10/11 08:21:13;;;;;;;8.83;4.20;;;19.40;99.90;;;;;;5079846;28;20466;-79
2023/10/11 08:23:43;;;;;;;10.40;3.80;;;19.50;99.90;;;;;;5085236;28;20466;-80
2023/10/11 08:26:14;;;;;;;6.73;3.37;;;19.50;99.90;;;;;;5087705;28;20971;-78
2023/10/11 08:28:48;;;;;;;9.57;3.07;;;19.50;99.90;;;;;;5080812;28;20926;-80
2023/10/11 08:31:26;;;;;;;9.27;3.87;;;19.50;99.90;;;;;;5088142;28;20538;-82
2023/10/11 08:33:53;;;;;;;10.10;4.50;;;19.60;99.90;;;;;;5081195;28;20854;-80
2023/10/11 08:36:21;;;;;;;5.40;3.43;;;19.70;99.90;;;;;;5080581;28;20454;-82
2023/10/11 08:38:49;;;;;;;13.60;4.23;;;19.70;99.90;;;;;;5079355;28;20538;-81
2023/10/11 08:41:18;;;;;;;7.87;3.77;;;19.70;99.90;;;;;;5079915;28;21105;-80
2023/10/11 08:43:49;;;;;;;7.00;3.50;;;19.70;99.90;;;;;;5079831;28;20529;-80
2023/10/11 08:46:18;;;;;;;6.50;3.77;;;19.80;99.90;;;;;;5090835;28;20527;-79
2023/10/11 08:48:49;;;;;;;6.70;3.80;;;19.80;99.90;;;;;;5089442;28;21086;-82
2023/10/11 08:51:21;;;;;;;5.90;3.30;;;19.80;99.90;;;;;;5080971;28;20494;-80
2023/10/11 08:53:54;;;;;;;6.00;3.50;;;19.80;99.90;;;;;;5081669;28;20452;-80
2023/10/11 08:56:23;;;;;;;6.13;3.43;;;19.90;99.90;;;;;;5080501;28;20819;-79
2023/10/11 08:58:53;;;;;;;7.00;3.67;;;19.90;99.90;;;;;;5078131;28;20505;-80
2023/10/11 09:01:24;;;;;;;9.53;4.27;;;20.00;99.90;;;;;;5079194;28;20483;-80
2023/10/11 09:04:08;;;;;;;8.87;4.10;;;20.00;99.90;;;;;;5079942;28;21247;-82
2023/10/11 09:06:36;;;;;;;12.00;3.63;;;20.00;99.90;;;;;;5085751;28;20482;-80
2023/10/11 09:09:05;;;;;;;6.47;3.60;;;20.10;99.90;;;;;;5077727;28;20454;-80
2023/10/11 09:11:32;;;;;;;8.80;4.13;;;20.20;99.90;;;;;;5078819;28;20550;-81
2023/10/11 09:14:22;;;;;;;9.80;4.17;;;20.20;99.90;;;;;;5082049;28;20458;-81
2023/10/11 09:16:51;;;;;;;8.80;3.67;;;20.30;99.90;;;;;;5094771;28;21035;-81
2023/10/11 09:19:19;;;;;;;5.10;3.77;;;20.30;99.90;;;;;;5098445;28;20481;-81
2023/10/11 09:22:02;;;;;;;7.47;4.10;;;20.40;99.90;;;;;;5098494;28;20466;-80
2023/10/11 09:24:38;;;;;;;6.20;3.60;;;20.40;99.90;;;;;;5090723;28;20455;-80
2023/10/11 09:27:19;;;;;;;8.43;4.17;;;20.40;99.90;;;;;;5081003;28;20519;-79
2023/10/11 09:29:47;;;;;;;9.50;3.80;;;20.50;99.90;;;;;;5093628;28;20449;-80
2023/10/11 09:32:19;;;;;;;7.77;4.53;;;20.60;99.90;;;;;;5099453;28;21012;-81
2023/10/11 09:34:47;;;;;;;7.60;4.70;;;20.60;99.90;;;;;;5089563;28;20447;-80
2023/10/11 09:37:13;;;;;;;9.53;4.40;;;20.60;99.90;;;;;;5090418;28;20446;-81
2023/10/11 09:39:43;;;;;;;12.03;4.37;;;20.70;99.90;;;;;;5083837;28;20527;-81
2023/10/11 09:42:12;;;;;;;9.30;3.73;;;20.80;99.90;;;;;;5077664;28;20553;-80
2023/10/11 09:44:43;;;;;;;8.10;4.00;;;20.80;99.90;;;;;;5081114;28;20500;-80
2023/10/11 09:47:16;;;;;;;9.73;4.50;;;20.80;99.90;;;;;;5096172;28;20482;-80
2023/10/11 09:49:43;;;;;;;8.30;4.03;;;20.90;99.90;;;;;;5097927;28;20943;-80
2023/10/11 09:52:11;;;;;;;6.93;4.33;;;21.10;99.90;;;;;;5101697;28;20564;-79
2023/10/11 09:54:40;;;;;;;7.83;3.60;;;21.10;99.90;;;;;;5092055;28;20455;-78
2023/10/11 09:57:20;;;;;;;7.53;3.83;;;21.10;99.90;;;;;;5081591;28;20454;-81
2023/10/11 09:59:59;;;;;;;10.03;3.80;;;21.10;99.90;;;;;;5082618;28;20524;-80
2023/10/11 10:02:33;;;;;;;6.80;3.70;;;21.30;99.90;;;;;;5083160;28;20471;-79
2023/10/11 10:05:04;;;;;;;8.70;4.37;;;21.30;99.90;;;;;;5079338;28;20460;-80
2023/10/11 10:07:42;;;;;;;7.73;4.03;;;21.50;99.90;;;;;;5081964;28;20488;-80
2023/10/11 10:10:11;;;;;;;8.43;3.63;;;21.70;99.90;;;;;;5078923;28;20454;-80
2023/10/11 10:12:43;;;;;;;7.90;4.07;;;21.90;99.90;;;;;;5078001;28;20507;-80
2023/10/11 10:15:13;;;;;;;6.47;4.13;;;22.10;99.90;;;;;;5082396;28;20477;-80
2023/10/11 10:17:42;;;;;;;10.37;4.23;;;22.30;99.90;;;;;;5097589;28;20446;-82
2023/10/11 10:20:44;;;;;;;9.90;4.03;;;22.50;99.90;;;;;;5099086;28;20454;-80
2023/10/11 10:23:26;;;;;;;8.90;4.47;;;22.90;99.90;;;;;;5098723;28;20437;-80
2023/10/11 10:26:38;;;;;;;8.37;4.27;;;23.00;99.90;;;;;;5078342;28;20493;-79
2023/10/11 10:29:12;;;;;;;5.87;3.77;;;23.40;99.90;;;;;;5095147;28;20505;-80
2023/10/11 10:32:06;;;;;;;6.97;3.97;;;23.20;99.90;;;;;;5098293;28;20474;-80
2023/10/11 10:34:34;;;;;;;10.03;4.70;;;23.00;99.90;;;;;;5089820;28;20453;-80
2023/10/11 10:37:06;;;;;;;10.53;4.50;;;23.10;99.90;;;;;;5076603;28;20446;-80
2023/10/11 10:42:17;;;;;;;10.23;4.50;;;23.50;99.90;;;;;;5076295;28;20872;-80
2023/10/11 10:44:53;;;;;;;8.50;3.87;;;23.80;99.90;;;;;;5075455;28;20512;-80
2023/10/11 10:47:31;;;;;;;8.03;3.87;;;24.10;99.90;;;;;;5075711;28;21012;-79
2023/10/11 10:50:06;;;;;;;8.33;4.03;;;24.20;99.90;;;;;;5075486;28;20876;-80
2023/10/11 10:52:32;;;;;;;8.20;4.00;;;24.50;99.90;;;;;;5075193;28;20475;-81
2023/10/11 10:55:03;;;;;;;6.40;4.33;;;24.50;99.90;;;;;;5076457;28;20453;-80
2023/10/11 10:57:31;;;;;;;7.87;4.57;;;24.50;99.90;;;;;;5074265;28;20454;-80
2023/10/11 11:00:05;;;;;;;8.43;4.33;;;24.50;99.90;;;;;;5075169;28;20462;-82
2023/10/11 11:02:36;;;;;;;11.87;4.33;;;24.60;99.90;;;;;;5075613;28;20478;-81
2023/10/11 11:05:13;;;;;;;9.87;3.83;;;24.80;99.90;;;;;;5076761;28;20486;-81
2023/10/11 11:07:40;;;;;;;11.53;4.50;;;24.90;99.90;;;;;;5095294;28;20859;-80
2023/10/11 11:10:08;;;;;;;11.33;5.20;;;25.10;99.90;;;;;;5086056;28;20505;-80
2023/10/11 11:12:34;;;;;;;8.50;4.73;;;25.20;99.90;;;;;;5075358;28;20853;-80
2023/10/11 11:15:08;;;;;;;12.73;4.57;;;25.50;99.90;;;;;;5076775;28;20455;-79
2023/10/11 11:17:46;;;;;;;16.33;4.60;;;25.80;99.90;;;;;;5095587;28;20450;-81
2023/10/11 11:20:15;;;;;;;11.80;4.33;;;25.90;99.90;;;;;;5094598;28;21004;-81
2023/10/11 11:22:42;;;;;;;10.07;4.77;;;26.40;99.90;;;;;;5095397;28;20478;-80
2023/10/11 11:25:26;;;;;;;7.23;4.10;;;26.80;99.90;;;;;;5084932;28;20534;-80
2023/10/11 11:28:03;;;;;;;9.57;3.97;;;26.80;99.90;;;;;;5075448;28;20528;-81
2023/10/11 11:30:34;;;;;;;7.17;4.80;;;26.90;99.90;;;;;;5076929;28;20443;-81
2023/10/11 11:33:01;;;;;;;12.73;5.10;;;27.00;99.90;;;;;;5076558;28;20450;-81
2023/10/11 11:35:29;;;;;;;9.70;4.10;;;27.20;99.90;;;;;;5077574;28;20450;-81
2023/10/11 11:38:01;;;;;;;9.33;4.50;;;27.50;99.90;;;;;;5076134;28;20446;-82
2023/10/11 11:40:31;;;;;;;11.13;3.87;;;27.70;99.90;;;;;;5081457;28;20441;-81
2023/10/11 11:43:00;;;;;;;12.00;4.30;;;28.00;99.90;;;;;;5082249;28;20481;-79
2023/10/11 11:45:30;;;;;;;9.50;4.90;;;27.90;99.90;;;;;;5078843;28;20521;-78
2023/10/11 11:47:57;;;;;;;11.30;4.03;;;28.10;99.90;;;;;;5078749;28;20491;-79
2023/10/11 11:50:24;;;;;;;10.33;4.70;;;27.90;99.90;;;;;;5078430;28;20458;-79
2023/10/11 11:52:50;;;;;;;12.87;4.70;;;28.10;99.90;;;;;;5077750;28;21019;-81
2023/10/11 11:55:20;;;;;;;11.80;4.67;;;28.50;99.90;;;;;;5083743;28;20466;-80
2023/10/11 11:57:47;;;;;;;11.43;4.23;;;28.50;99.90;;;;;;5089164;28;20846;-80
2023/10/11 12:00:37;;;;;;;12.60;4.97;;;28.70;99.90;;;;;;5086784;28;21004;-81
2023/10/11 12:03:06;;;;;;;16.70;4.93;;;29.20;99.90;;;;;;5095224;28;20454;-81
2023/10/11 12:05:40;;;;;;;7.60;3.43;;;29.30;99.90;;;;;;5085434;28;20462;-80
2023/10/11 12:08:08;;;;;;;10.77;4.33;;;29.40;99.90;;;;;;5087904;28;20853;-81
2023/10/11 12:10:35;;;;;;;7.37;3.70;;;29.30;99.90;;;;;;5099404;28;20464;-80
2023/10/11 12:13:08;;;;;;;18.53;4.70;;;28.80;99.90;;;;;;5081084;28;20526;-79
2023/10/11 12:15:35;;;;;;;9.63;4.27;;;29.00;99.90;;;;;;5084389;28;20464;-80
2023/10/11 12:18:05;;;;;;;10.67;4.27;;;29.10;99.90;;;;;;5098964;28;20454;-79
2023/10/11 12:20:37;;;;;;;8.00;4.63;;;29.20;99.90;;;;;;5099130;28;20552;-81
2023/10/11 12:23:08;;;;;;;12.13;4.67;;;29.30;99.90;;;;;;5099403;28;20509;-80
2023/10/11 12:25:36;;;;;;;12.93;4.00;;;29.20;99.90;;;;;;5085179;28;20454;-80
2023/10/11 12:28:04;;;;;;;7.60;4.20;;;29.40;99.90;;;;;;5079267;28;20577;-80
2023/10/11 12:30:33;;;;;;;16.23;4.27;;;29.30;99.90;;;;;;5083851;28;20895;-80
2023/10/11 12:33:06;;;;;;;12.27;4.43;;;29.10;99.90;;;;;;5087971;28;20514;-81
2023/10/11 12:35:36;;;;;;;18.17;5.07;;;29.00;99.90;;;;;;5086850;28;20454;-81
2023/10/11 12:38:04;;;;;;;10.50;4.67;;;28.90;99.90;;;;;;5079506;28;20531;-80
2023/10/11 12:40:34;;;;;;;13.70;4.63;;;28.70;99.90;;;;;;5079652;28;20447;-80
2023/10/11 12:43:01;;;;;;;11.10;4.70;;;28.60;99.90;;;;;;5078507;28;20455;-79
2023/10/11 12:45:28;;;;;;;9.87;4.20;;;28.30;99.90;;;;;;5085059;28;20458;-80
2023/10/11 12:47:55;;;;;;;13.00;4.47;;;28.40;99.90;;;;;;5095013;28;21126;-80
2023/10/11 12:50:21;;;;;;;10.33;5.17;;;28.30;99.90;;;;;;5088940;28;20447;-81
2023/10/11 12:52:52;;;;;;;10.70;4.80;;;28.30;99.90;;;;;;5094834;28;20474;-80
2023/10/11 12:55:20;;;;;;;13.67;4.60;;;28.20;99.90;;;;;;5079924;28;20529;-80
2023/10/11 12:57:48;;;;;;;12.43;4.37;;;28.00;99.90;;;;;;5093018;28;20891;-80
2023/10/11 13:00:31;;;;;;;17.30;4.30;;;28.10;99.90;;;;;;5084741;28;20462;-80
2023/10/11 13:03:05;;;;;;;11.27;4.10;;;28.00;99.90;;;;;;5084740;28;20449;-80
2023/10/11 13:05:33;;;;;;;12.03;4.37;;;27.90;99.90;;;;;;5084614;28;20593;-79
2023/10/11 13:08:01;;;;;;;10.60;4.80;;;27.40;99.90;;;;;;5079211;28;20521;-81
2023/10/11 13:10:29;;;;;;;15.07;4.67;;;27.30;99.90;;;;;;5079861;28;20462;-80
2023/10/11 13:12:56;;;;;;;8.10;3.70;;;27.40;99.90;;;;;;5088866;28;20554;-80
2023/10/11 13:15:24;;;;;;;10.00;4.20;;;27.50;99.90;;;;;;5089750;28;20483;-79
2023/10/11 13:17:51;;;;;;;11.97;3.80;;;27.80;99.90;;;;;;5086570;28;20447;-80
2023/10/11 13:20:31;;;;;;;7.17;4.20;;;28.00;99.90;;;;;;5087169;28;20466;-80
2023/10/11 13:23:00;;;;;;;11.57;4.30;;;28.30;99.90;;;;;;5089952;28;20525;-79